sensor_id;sensor_type;location;lat;lon;timestamp;P1;durP1;ratioP1;P2;durP2;ratioP2
75894;SDS011;64573;50.328;15.014;2023-08-30T00:00:33;2.35;;;1.00;;
75894;SDS011;64573;50.328;15.014;2023-08-30T00:02:59;2.92;;;1.35;;
75894;SDS011;64573;50.328;15.014;2023-08-30T00:05:25;2.28;;;1.13;;
75894;SDS011;64573;50.328;15.014;2023-08-30T00:07:53;3.17;;;1.42;;
75894;SDS011;64573;50.328;15.014;2023-08-30T00:10:18;2.85;;;1.63;;
75894;SDS011;64573;50.328;15.014;2023-08-30T00:12:44;1.80;;;1.40;;
75894;SDS011;64573;50.328;15.014;2023-08-30T00:15:09;2.03;;;1.70;;
75894;SDS011;64573;50.328;15.014;2023-08-30T00:17:35;4.65;;;1.73;;
75894;SDS011;64573;50.328;15.014;2023-08-30T00:20:00;2.45;;;2.10;;
75894;SDS011;64573;50.328;15.014;2023-08-30T00:22:25;2.30;;;1.73;;
75894;SDS011;64573;50.328;15.014;2023-08-30T00:27:17;2.30;;;2.10;;
75894;SDS011;64573;50.328;15.014;2023-08-30T00:29:43;2.10;;;1.90;;
75894;SDS011;64573;50.328;15.014;2023-08-30T00:32:08;2.40;;;1.90;;
75894;SDS011;64573;50.328;15.014;2023-08-30T00:34:33;3.70;;;2.20;;
75894;SDS011;64573;50.328;15.014;2023-08-30T00:36:59;4.88;;;2.28;;
75894;SDS011;64573;50.328;15.014;2023-08-30T00:39:24;2.55;;;1.88;;
75894;SDS011;64573;50.328;15.014;2023-08-30T00:41:49;2.17;;;1.80;;
75894;SDS011;64573;50.328;15.014;2023-08-30T00:44:15;2.42;;;1.77;;
75894;SDS011;64573;50.328;15.014;2023-08-30T00:46:40;2.15;;;1.70;;
75894;SDS011;64573;50.328;15.014;2023-08-30T00:49:06;3.92;;;1.70;;
75894;SDS011;64573;50.328;15.014;2023-08-30T00:51:32;1.75;;;1.52;;
75894;SDS011;64573;50.328;15.014;2023-08-30T00:53:58;1.90;;;1.50;;
75894;SDS011;64573;50.328;15.014;2023-08-30T00:56:25;2.58;;;1.30;;
75894;SDS011;64573;50.328;15.014;2023-08-30T00:58:52;1.77;;;1.30;;
75894;SDS011;64573;50.328;15.014;2023-08-30T01:01:18;6.03;;;1.70;;
75894;SDS011;64573;50.328;15.014;2023-08-30T01:03:43;3.03;;;1.60;;
75894;SDS011;64573;50.328;15.014;2023-08-30T01:06:09;2.97;;;1.73;;
75894;SDS011;64573;50.328;15.014;2023-08-30T01:08:35;3.05;;;1.75;;
75894;SDS011;64573;50.328;15.014;2023-08-30T01:11:22;1.83;;;1.67;;
75894;SDS011;64573;50.328;15.014;2023-08-30T01:16:56;3.45;;;1.80;;
75894;SDS011;64573;50.328;15.014;2023-08-30T01:22:21;2.30;;;1.88;;
75894;SDS011;64573;50.328;15.014;2023-08-30T01:27:38;2.65;;;1.65;;
75894;SDS011;64573;50.328;15.014;2023-08-30T01:30:05;2.63;;;1.67;;
75894;SDS011;64573;50.328;15.014;2023-08-30T01:32:33;2.22;;;1.65;;
75894;SDS011;64573;50.328;15.014;2023-08-30T01:35:00;2.08;;;1.88;;
75894;SDS011;64573;50.328;15.014;2023-08-30T01:37:26;2.00;;;1.80;;
75894;SDS011;64573;50.328;15.014;2023-08-30T01:39:52;2.10;;;1.88;;
75894;SDS011;64573;50.328;15.014;2023-08-30T01:42:21;2.92;;;1.98;;
75894;SDS011;64573;50.328;15.014;2023-08-30T01:44:48;2.30;;;1.90;;
75894;SDS011;64573;50.328;15.014;2023-08-30T01:47:16;2.47;;;1.67;;
75894;SDS011;64573;50.328;15.014;2023-08-30T01:49:43;2.20;;;1.90;;
75894;SDS011;64573;50.328;15.014;2023-08-30T01:52:09;2.33;;;1.92;;
75894;SDS011;64573;50.328;15.014;2023-08-30T01:54:35;2.08;;;1.80;;
75894;SDS011;64573;50.328;15.014;2023-08-30T01:57:02;3.60;;;1.90;;
75894;SDS011;64573;50.328;15.014;2023-08-30T01:59:29;2.08;;;1.88;;
75894;SDS011;64573;50.328;15.014;2023-08-30T02:01:54;2.13;;;1.90;;
75894;SDS011;64573;50.328;15.014;2023-08-30T02:04:20;2.17;;;1.88;;
75894;SDS011;64573;50.328;15.014;2023-08-30T02:06:48;2.55;;;1.90;;
75894;SDS011;64573;50.328;15.014;2023-08-30T02:09:21;2.55;;;2.03;;
75894;SDS011;64573;50.328;15.014;2023-08-30T02:11:54;2.65;;;1.98;;
75894;SDS011;64573;50.328;15.014;2023-08-30T02:14:22;2.38;;;2.08;;
75894;SDS011;64573;50.328;15.014;2023-08-30T02:16:50;4.40;;;2.28;;
75894;SDS011;64573;50.328;15.014;2023-08-30T02:19:16;2.97;;;2.25;;
75894;SDS011;64573;50.328;15.014;2023-08-30T02:21:45;3.28;;;2.05;;
75894;SDS011;64573;50.328;15.014;2023-08-30T02:24:11;2.88;;;2.17;;
75894;SDS011;64573;50.328;15.014;2023-08-30T02:26:36;4.35;;;2.08;;
75894;SDS011;64573;50.328;15.014;2023-08-30T02:29:02;2.45;;;1.98;;
75894;SDS011;64573;50.328;15.014;2023-08-30T02:31:27;4.15;;;2.22;;
75894;SDS011;64573;50.328;15.014;2023-08-30T02:33:53;2.60;;;2.00;;
75894;SDS011;64573;50.328;15.014;2023-08-30T02:36:19;2.42;;;2.03;;
75894;SDS011;64573;50.328;15.014;2023-08-30T02:38:44;3.25;;;1.75;;
75894;SDS011;64573;50.328;15.014;2023-08-30T02:41:09;2.72;;;2.03;;
75894;SDS011;64573;50.328;15.014;2023-08-30T02:43:35;2.53;;;1.75;;
75894;SDS011;64573;50.328;15.014;2023-08-30T02:46:00;2.55;;;1.73;;
75894;SDS011;64573;50.328;15.014;2023-08-30T02:48:28;8.15;;;2.47;;
75894;SDS011;64573;50.328;15.014;2023-08-30T02:50:54;2.00;;;1.60;;
75894;SDS011;64573;50.328;15.014;2023-08-30T02:53:19;3.45;;;1.80;;
75894;SDS011;64573;50.328;15.014;2023-08-30T02:55:46;5.10;;;1.90;;
75894;SDS011;64573;50.328;15.014;2023-08-30T02:58:12;2.20;;;1.80;;
75894;SDS011;64573;50.328;15.014;2023-08-30T03:00:37;2.80;;;2.05;;
75894;SDS011;64573;50.328;15.014;2023-08-30T03:03:03;2.50;;;1.85;;
75894;SDS011;64573;50.328;15.014;2023-08-30T03:05:29;2.35;;;1.88;;
75894;SDS011;64573;50.328;15.014;2023-08-30T03:07:54;2.20;;;1.77;;
75894;SDS011;64573;50.328;15.014;2023-08-30T03:10:19;2.42;;;1.85;;
75894;SDS011;64573;50.328;15.014;2023-08-30T03:12:45;2.10;;;1.80;;
75894;SDS011;64573;50.328;15.014;2023-08-30T03:15:10;2.40;;;1.80;;
75894;SDS011;64573;50.328;15.014;2023-08-30T03:17:35;1.98;;;1.60;;
75894;SDS011;64573;50.328;15.014;2023-08-30T03:20:01;3.30;;;1.80;;
75894;SDS011;64573;50.328;15.014;2023-08-30T03:22:28;1.92;;;1.70;;
75894;SDS011;64573;50.328;15.014;2023-08-30T03:24:54;2.53;;;1.58;;
75894;SDS011;64573;50.328;15.014;2023-08-30T03:27:19;2.50;;;1.60;;
75894;SDS011;64573;50.328;15.014;2023-08-30T03:29:45;1.60;;;1.30;;
75894;SDS011;64573;50.328;15.014;2023-08-30T03:32:13;2.72;;;1.20;;
75894;SDS011;64573;50.328;15.014;2023-08-30T03:34:41;1.40;;;1.25;;
75894;SDS011;64573;50.328;15.014;2023-08-30T03:37:09;1.10;;;1.00;;
75894;SDS011;64573;50.328;15.014;2023-08-30T03:39:34;1.30;;;1.05;;
75894;SDS011;64573;50.328;15.014;2023-08-30T03:42:00;1.45;;;1.02;;
75894;SDS011;64573;50.328;15.014;2023-08-30T03:44:25;1.90;;;1.10;;
75894;SDS011;64573;50.328;15.014;2023-08-30T03:46:50;1.30;;;1.20;;
75894;SDS011;64573;50.328;15.014;2023-08-30T03:49:16;1.30;;;1.15;;
75894;SDS011;64573;50.328;15.014;2023-08-30T03:51:41;1.38;;;1.25;;
75894;SDS011;64573;50.328;15.014;2023-08-30T03:54:06;3.75;;;1.13;;
75894;SDS011;64573;50.328;15.014;2023-08-30T03:56:33;2.25;;;1.08;;
75894;SDS011;64573;50.328;15.014;2023-08-30T03:58:58;1.10;;;1.00;;
75894;SDS011;64573;50.328;15.014;2023-08-30T04:01:24;1.05;;;0.95;;
75894;SDS011;64573;50.328;15.014;2023-08-30T04:03:49;2.17;;;0.95;;
75894;SDS011;64573;50.328;15.014;2023-08-30T04:06:14;1.85;;;1.00;;
75894;SDS011;64573;50.328;15.014;2023-08-30T04:08:40;1.10;;;0.80;;
75894;SDS011;64573;50.328;15.014;2023-08-30T04:11:05;3.30;;;0.80;;
75894;SDS011;64573;50.328;15.014;2023-08-30T04:13:30;1.13;;;0.90;;
75894;SDS011;64573;50.328;15.014;2023-08-30T04:15:56;3.03;;;1.30;;
75894;SDS011;64573;50.328;15.014;2023-08-30T04:18:23;1.30;;;1.00;;
75894;SDS011;64573;50.328;15.014;2023-08-30T04:20:49;0.90;;;0.75;;
75894;SDS011;64573;50.328;15.014;2023-08-30T04:23:14;1.23;;;0.98;;
75894;SDS011;64573;50.328;15.014;2023-08-30T04:25:40;1.05;;;0.90;;
75894;SDS011;64573;50.328;15.014;2023-08-30T04:28:05;0.77;;;0.77;;
75894;SDS011;64573;50.328;15.014;2023-08-30T04:30:31;1.00;;;0.90;;
75894;SDS011;64573;50.328;15.014;2023-08-30T04:32:56;1.00;;;0.80;;
75894;SDS011;64573;50.328;15.014;2023-08-30T04:35:21;1.17;;;0.77;;
75894;SDS011;64573;50.328;15.014;2023-08-30T04:37:47;2.05;;;0.73;;
75894;SDS011;64573;50.328;15.014;2023-08-30T04:40:13;1.27;;;0.80;;
75894;SDS011;64573;50.328;15.014;2023-08-30T04:42:39;0.85;;;0.80;;
75894;SDS011;64573;50.328;15.014;2023-08-30T04:45:05;0.80;;;0.80;;
75894;SDS011;64573;50.328;15.014;2023-08-30T04:47:31;0.80;;;0.80;;
75894;SDS011;64573;50.328;15.014;2023-08-30T04:49:57;0.80;;;0.70;;
75894;SDS011;64573;50.328;15.014;2023-08-30T04:52:22;1.10;;;0.80;;
75894;SDS011;64573;50.328;15.014;2023-08-30T04:54:47;1.38;;;0.70;;
75894;SDS011;64573;50.328;15.014;2023-08-30T04:57:14;0.70;;;0.70;;
75894;SDS011;64573;50.328;15.014;2023-08-30T04:59:41;1.85;;;0.80;;
75894;SDS011;64573;50.328;15.014;2023-08-30T05:02:07;1.05;;;0.80;;
75894;SDS011;64573;50.328;15.014;2023-08-30T05:04:32;1.27;;;0.85;;
75894;SDS011;64573;50.328;15.014;2023-08-30T05:06:57;0.95;;;0.70;;
75894;SDS011;64573;50.328;15.014;2023-08-30T05:09:23;0.73;;;0.70;;
75894;SDS011;64573;50.328;15.014;2023-08-30T05:11:50;1.00;;;0.90;;
75894;SDS011;64573;50.328;15.014;2023-08-30T05:14:15;0.70;;;0.70;;
75894;SDS011;64573;50.328;15.014;2023-08-30T05:16:41;0.73;;;0.70;;
75894;SDS011;64573;50.328;15.014;2023-08-30T05:19:06;1.17;;;0.88;;
75894;SDS011;64573;50.328;15.014;2023-08-30T05:21:31;2.22;;;0.88;;
75894;SDS011;64573;50.328;15.014;2023-08-30T05:23:57;3.08;;;0.95;;
75894;SDS011;64573;50.328;15.014;2023-08-30T05:26:22;1.27;;;0.95;;
75894;SDS011;64573;50.328;15.014;2023-08-30T05:28:47;1.23;;;0.70;;
75894;SDS011;64573;50.328;15.014;2023-08-30T05:31:13;0.70;;;0.60;;
75894;SDS011;64573;50.328;15.014;2023-08-30T05:33:38;2.15;;;0.80;;
75894;SDS011;64573;50.328;15.014;2023-08-30T05:36:03;0.75;;;0.60;;
75894;SDS011;64573;50.328;15.014;2023-08-30T05:38:29;2.70;;;0.60;;
75894;SDS011;64573;50.328;15.014;2023-08-30T05:40:54;0.90;;;0.80;;
75894;SDS011;64573;50.328;15.014;2023-08-30T05:43:19;0.82;;;0.63;;
75894;SDS011;64573;50.328;15.014;2023-08-30T05:45:45;0.75;;;0.70;;
75894;SDS011;64573;50.328;15.014;2023-08-30T05:48:10;0.90;;;0.80;;
75894;SDS011;64573;50.328;15.014;2023-08-30T05:50:36;1.00;;;0.73;;
75894;SDS011;64573;50.328;15.014;2023-08-30T05:53:02;0.65;;;0.63;;
75894;SDS011;64573;50.328;15.014;2023-08-30T05:55:28;1.08;;;0.77;;
75894;SDS011;64573;50.328;15.014;2023-08-30T05:57:54;1.05;;;0.60;;
75894;SDS011;64573;50.328;15.014;2023-08-30T06:00:19;1.52;;;0.70;;
75894;SDS011;64573;50.328;15.014;2023-08-30T06:02:45;0.60;;;0.60;;
75894;SDS011;64573;50.328;15.014;2023-08-30T06:05:11;1.00;;;0.60;;
75894;SDS011;64573;50.328;15.014;2023-08-30T06:07:36;0.57;;;0.57;;
75894;SDS011;64573;50.328;15.014;2023-08-30T06:10:02;1.05;;;0.70;;
75894;SDS011;64573;50.328;15.014;2023-08-30T06:12:27;0.80;;;0.70;;
75894;SDS011;64573;50.328;15.014;2023-08-30T06:14:53;0.95;;;0.50;;
75894;SDS011;64573;50.328;15.014;2023-08-30T06:17:19;1.08;;;0.70;;
75894;SDS011;64573;50.328;15.014;2023-08-30T06:19:45;3.22;;;0.70;;
75894;SDS011;64573;50.328;15.014;2023-08-30T06:22:10;1.88;;;0.68;;
75894;SDS011;64573;50.328;15.014;2023-08-30T06:24:36;1.35;;;0.68;;
75894;SDS011;64573;50.328;15.014;2023-08-30T06:27:01;0.70;;;0.70;;
75894;SDS011;64573;50.328;15.014;2023-08-30T06:29:27;1.05;;;0.63;;
75894;SDS011;64573;50.328;15.014;2023-08-30T06:31:52;0.60;;;0.60;;
75894;SDS011;64573;50.328;15.014;2023-08-30T06:34:17;0.47;;;0.47;;
75894;SDS011;64573;50.328;15.014;2023-08-30T06:36:42;1.08;;;0.70;;
75894;SDS011;64573;50.328;15.014;2023-08-30T06:39:08;1.00;;;0.63;;
75894;SDS011;64573;50.328;15.014;2023-08-30T06:41:33;1.27;;;0.70;;
75894;SDS011;64573;50.328;15.014;2023-08-30T06:43:58;0.60;;;0.60;;
75894;SDS011;64573;50.328;15.014;2023-08-30T06:46:24;0.60;;;0.60;;
75894;SDS011;64573;50.328;15.014;2023-08-30T06:48:49;0.77;;;0.77;;
75894;SDS011;64573;50.328;15.014;2023-08-30T06:51:15;0.98;;;0.70;;
75894;SDS011;64573;50.328;15.014;2023-08-30T06:53:40;1.20;;;0.82;;
75894;SDS011;64573;50.328;15.014;2023-08-30T06:56:05;1.20;;;0.90;;
75894;SDS011;64573;50.328;15.014;2023-08-30T06:58:31;0.70;;;0.70;;
75894;SDS011;64573;50.328;15.014;2023-08-30T07:00:56;2.42;;;1.50;;
75894;SDS011;64573;50.328;15.014;2023-08-30T07:03:22;1.25;;;0.90;;
75894;SDS011;64573;50.328;15.014;2023-08-30T07:05:50;1.67;;;0.90;;
75894;SDS011;64573;50.328;15.014;2023-08-30T07:08:16;1.25;;;1.00;;
75894;SDS011;64573;50.328;15.014;2023-08-30T07:10:41;1.60;;;0.98;;
75894;SDS011;64573;50.328;15.014;2023-08-30T07:13:06;0.90;;;0.80;;
75894;SDS011;64573;50.328;15.014;2023-08-30T07:15:35;1.67;;;0.90;;
75894;SDS011;64573;50.328;15.014;2023-08-30T07:18:04;1.00;;;0.95;;
75894;SDS011;64573;50.328;15.014;2023-08-30T07:20:32;1.88;;;1.38;;
75894;SDS011;64573;50.328;15.014;2023-08-30T07:22:58;2.10;;;1.40;;
75894;SDS011;64573;50.328;15.014;2023-08-30T07:25:24;2.15;;;1.20;;
75894;SDS011;64573;50.328;15.014;2023-08-30T07:27:49;5.47;;;1.48;;
75894;SDS011;64573;50.328;15.014;2023-08-30T07:30:15;2.85;;;1.35;;
75894;SDS011;64573;50.328;15.014;2023-08-30T07:32:40;1.60;;;1.10;;
75894;SDS011;64573;50.328;15.014;2023-08-30T07:35:08;1.45;;;1.20;;
75894;SDS011;64573;50.328;15.014;2023-08-30T07:37:34;1.10;;;1.00;;
75894;SDS011;64573;50.328;15.014;2023-08-30T07:40:00;2.90;;;1.10;;
75894;SDS011;64573;50.328;15.014;2023-08-30T07:42:26;2.38;;;1.33;;
75894;SDS011;64573;50.328;15.014;2023-08-30T07:44:51;1.30;;;1.13;;
75894;SDS011;64573;50.328;15.014;2023-08-30T07:47:17;2.45;;;1.10;;
75894;SDS011;64573;50.328;15.014;2023-08-30T07:49:42;1.33;;;0.98;;
75894;SDS011;64573;50.328;15.014;2023-08-30T07:52:08;1.58;;;1.00;;
75894;SDS011;64573;50.328;15.014;2023-08-30T07:54:36;1.00;;;0.95;;
75894;SDS011;64573;50.328;15.014;2023-08-30T07:57:04;1.00;;;0.90;;
75894;SDS011;64573;50.328;15.014;2023-08-30T07:59:32;1.48;;;0.98;;
75894;SDS011;64573;50.328;15.014;2023-08-30T08:02:01;1.77;;;1.30;;
75894;SDS011;64573;50.328;15.014;2023-08-30T08:04:27;1.20;;;1.10;;
75894;SDS011;64573;50.328;15.014;2023-08-30T08:06:53;1.10;;;1.00;;
75894;SDS011;64573;50.328;15.014;2023-08-30T08:09:18;2.45;;;1.13;;
75894;SDS011;64573;50.328;15.014;2023-08-30T08:11:43;1.20;;;0.98;;
75894;SDS011;64573;50.328;15.014;2023-08-30T08:14:10;1.10;;;1.00;;
75894;SDS011;64573;50.328;15.014;2023-08-30T08:16:36;1.20;;;1.10;;
75894;SDS011;64573;50.328;15.014;2023-08-30T08:19:02;5.55;;;1.52;;
75894;SDS011;64573;50.328;15.014;2023-08-30T08:21:27;1.48;;;1.00;;
75894;SDS011;64573;50.328;15.014;2023-08-30T08:23:53;3.10;;;1.20;;
75894;SDS011;64573;50.328;15.014;2023-08-30T08:26:19;1.67;;;0.90;;
75894;SDS011;64573;50.328;15.014;2023-08-30T08:28:44;1.15;;;1.05;;
75894;SDS011;64573;50.328;15.014;2023-08-30T08:31:09;2.35;;;1.08;;
75894;SDS011;64573;50.328;15.014;2023-08-30T08:33:37;1.42;;;1.00;;
75894;SDS011;64573;50.328;15.014;2023-08-30T08:36:03;1.58;;;1.20;;
75894;SDS011;64573;50.328;15.014;2023-08-30T08:38:28;1.17;;;1.00;;
75894;SDS011;64573;50.328;15.014;2023-08-30T08:41:00;1.85;;;1.20;;
75894;SDS011;64573;50.328;15.014;2023-08-30T08:43:28;4.15;;;1.20;;
75894;SDS011;64573;50.328;15.014;2023-08-30T08:45:55;1.27;;;1.00;;
75894;SDS011;64573;50.328;15.014;2023-08-30T08:48:25;3.95;;;1.10;;
75894;SDS011;64573;50.328;15.014;2023-08-30T08:50:53;2.47;;;1.30;;
75894;SDS011;64573;50.328;15.014;2023-08-30T08:53:19;2.30;;;1.00;;
75894;SDS011;64573;50.328;15.014;2023-08-30T08:55:45;1.45;;;1.05;;
75894;SDS011;64573;50.328;15.014;2023-08-30T08:58:11;1.60;;;1.10;;
75894;SDS011;64573;50.328;15.014;2023-08-30T09:00:39;1.98;;;0.95;;
75894;SDS011;64573;50.328;15.014;2023-08-30T09:03:08;1.80;;;1.00;;
75894;SDS011;64573;50.328;15.014;2023-08-30T09:05:34;2.25;;;1.08;;
75894;SDS011;64573;50.328;15.014;2023-08-30T09:08:03;0.80;;;0.80;;
75894;SDS011;64573;50.328;15.014;2023-08-30T09:10:31;1.33;;;0.85;;
75894;SDS011;64573;50.328;15.014;2023-08-30T09:12:57;1.80;;;1.10;;
75894;SDS011;64573;50.328;15.014;2023-08-30T09:15:30;1.05;;;0.80;;
75894;SDS011;64573;50.328;15.014;2023-08-30T09:17:57;0.95;;;0.80;;
75894;SDS011;64573;50.328;15.014;2023-08-30T09:20:23;0.90;;;0.70;;
75894;SDS011;64573;50.328;15.014;2023-08-30T09:22:48;3.78;;;1.25;;
75894;SDS011;64573;50.328;15.014;2023-08-30T09:25:22;2.78;;;0.70;;
75894;SDS011;64573;50.328;15.014;2023-08-30T09:27:59;0.93;;;0.70;;
75894;SDS011;64573;50.328;15.014;2023-08-30T09:30:24;2.38;;;1.10;;
75894;SDS011;64573;50.328;15.014;2023-08-30T09:32:50;1.77;;;1.10;;
75894;SDS011;64573;50.328;15.014;2023-08-30T09:37:41;1.90;;;1.33;;
75894;SDS011;64573;50.328;15.014;2023-08-30T09:40:10;2.95;;;1.50;;
75894;SDS011;64573;50.328;15.014;2023-08-30T09:42:40;2.55;;;1.80;;
75894;SDS011;64573;50.328;15.014;2023-08-30T09:45:16;2.00;;;1.67;;
75894;SDS011;64573;50.328;15.014;2023-08-30T09:47:45;4.10;;;2.50;;
75894;SDS011;64573;50.328;15.014;2023-08-30T09:50:12;7.28;;;2.83;;
75894;SDS011;64573;50.328;15.014;2023-08-30T09:52:38;5.57;;;3.00;;
75894;SDS011;64573;50.328;15.014;2023-08-30T09:55:03;4.35;;;2.67;;
75894;SDS011;64573;50.328;15.014;2023-08-30T09:57:30;4.93;;;2.88;;
75894;SDS011;64573;50.328;15.014;2023-08-30T09:59:56;8.20;;;3.72;;
75894;SDS011;64573;50.328;15.014;2023-08-30T10:02:22;5.65;;;3.35;;
75894;SDS011;64573;50.328;15.014;2023-08-30T10:04:48;4.55;;;2.72;;
75894;SDS011;64573;50.328;15.014;2023-08-30T10:07:15;3.53;;;2.17;;
75894;SDS011;64573;50.328;15.014;2023-08-30T10:09:42;3.22;;;2.00;;
75894;SDS011;64573;50.328;15.014;2023-08-30T10:12:08;3.80;;;2.40;;
75894;SDS011;64573;50.328;15.014;2023-08-30T10:14:35;4.97;;;2.72;;
75894;SDS011;64573;50.328;15.014;2023-08-30T10:17:01;3.65;;;2.42;;
75894;SDS011;64573;50.328;15.014;2023-08-30T10:19:33;3.95;;;2.60;;
75894;SDS011;64573;50.328;15.014;2023-08-30T10:22:03;6.20;;;2.60;;
75894;SDS011;64573;50.328;15.014;2023-08-30T10:24:32;3.03;;;2.17;;
75894;SDS011;64573;50.328;15.014;2023-08-30T10:27:01;5.82;;;2.45;;
75894;SDS011;64573;50.328;15.014;2023-08-30T10:29:29;4.38;;;2.40;;
75894;SDS011;64573;50.328;15.014;2023-08-30T10:32:01;2.83;;;2.20;;
75894;SDS011;64573;50.328;15.014;2023-08-30T10:34:31;5.72;;;2.47;;
75894;SDS011;64573;50.328;15.014;2023-08-30T10:37:01;2.50;;;1.98;;
75894;SDS011;64573;50.328;15.014;2023-08-30T10:39:38;3.45;;;2.20;;
75894;SDS011;64573;50.328;15.014;2023-08-30T10:42:14;3.13;;;2.40;;
75894;SDS011;64573;50.328;15.014;2023-08-30T10:47:19;4.28;;;1.95;;
75894;SDS011;64573;50.328;15.014;2023-08-30T10:49:47;4.90;;;2.20;;
75894;SDS011;64573;50.328;15.014;2023-08-30T10:52:13;3.28;;;1.98;;
75894;SDS011;64573;50.328;15.014;2023-08-30T10:54:39;3.08;;;2.10;;
75894;SDS011;64573;50.328;15.014;2023-08-30T10:57:04;3.28;;;1.70;;
75894;SDS011;64573;50.328;15.014;2023-08-30T10:59:30;4.60;;;1.65;;
75894;SDS011;64573;50.328;15.014;2023-08-30T11:01:55;2.63;;;1.75;;
75894;SDS011;64573;50.328;15.014;2023-08-30T11:04:21;2.90;;;1.90;;
75894;SDS011;64573;50.328;15.014;2023-08-30T11:06:47;3.88;;;1.88;;
75894;SDS011;64573;50.328;15.014;2023-08-30T11:09:24;4.03;;;1.60;;
75894;SDS011;64573;50.328;15.014;2023-08-30T11:11:50;3.90;;;1.60;;
75894;SDS011;64573;50.328;15.014;2023-08-30T11:14:16;3.55;;;2.20;;
75894;SDS011;64573;50.328;15.014;2023-08-30T11:16:43;4.95;;;2.22;;
75894;SDS011;64573;50.328;15.014;2023-08-30T11:19:09;4.93;;;2.00;;
75894;SDS011;64573;50.328;15.014;2023-08-30T11:21:39;3.75;;;1.70;;
75894;SDS011;64573;50.328;15.014;2023-08-30T11:24:07;2.08;;;1.42;;
75894;SDS011;64573;50.328;15.014;2023-08-30T11:26:33;2.80;;;1.60;;
75894;SDS011;64573;50.328;15.014;2023-08-30T11:29:08;2.90;;;1.45;;
75894;SDS011;64573;50.328;15.014;2023-08-30T11:31:34;2.70;;;1.20;;
75894;SDS011;64573;50.328;15.014;2023-08-30T11:34:00;1.70;;;1.13;;
75894;SDS011;64573;50.328;15.014;2023-08-30T11:36:26;1.63;;;1.00;;
75894;SDS011;64573;50.328;15.014;2023-08-30T11:38:54;2.15;;;1.00;;
75894;SDS011;64573;50.328;15.014;2023-08-30T11:41:20;1.95;;;1.13;;
75894;SDS011;64573;50.328;15.014;2023-08-30T11:43:49;2.78;;;0.90;;
75894;SDS011;64573;50.328;15.014;2023-08-30T11:46:16;4.00;;;1.23;;
75894;SDS011;64573;50.328;15.014;2023-08-30T11:48:42;1.90;;;1.05;;
75894;SDS011;64573;50.328;15.014;2023-08-30T11:51:08;2.38;;;1.02;;
75894;SDS011;64573;50.328;15.014;2023-08-30T11:53:35;3.67;;;1.13;;
75894;SDS011;64573;50.328;15.014;2023-08-30T11:56:02;3.35;;;1.23;;
75894;SDS011;64573;50.328;15.014;2023-08-30T11:58:32;1.50;;;0.93;;
75894;SDS011;64573;50.328;15.014;2023-08-30T12:00:58;1.83;;;1.10;;
75894;SDS011;64573;50.328;15.014;2023-08-30T12:03:26;2.15;;;1.00;;
75894;SDS011;64573;50.328;15.014;2023-08-30T12:05:53;1.77;;;0.98;;
75894;SDS011;64573;50.328;15.014;2023-08-30T12:08:19;2.65;;;1.20;;
75894;SDS011;64573;50.328;15.014;2023-08-30T12:10:46;1.83;;;0.90;;
75894;SDS011;64573;50.328;15.014;2023-08-30T12:13:28;2.97;;;0.90;;
75894;SDS011;64573;50.328;15.014;2023-08-30T12:15:56;5.22;;;1.00;;
75894;SDS011;64573;50.328;15.014;2023-08-30T12:20:55;1.27;;;0.98;;
75894;SDS011;64573;50.328;15.014;2023-08-30T12:23:30;1.77;;;0.88;;
75894;SDS011;64573;50.328;15.014;2023-08-30T12:25:58;1.92;;;0.82;;
75894;SDS011;64573;50.328;15.014;2023-08-30T12:28:24;1.98;;;0.90;;
75894;SDS011;64573;50.328;15.014;2023-08-30T12:30:50;4.68;;;0.80;;
75894;SDS011;64573;50.328;15.014;2023-08-30T12:33:22;2.15;;;0.90;;
75894;SDS011;64573;50.328;15.014;2023-08-30T12:35:51;2.85;;;0.90;;
75894;SDS011;64573;50.328;15.014;2023-08-30T12:38:19;0.93;;;0.80;;
75894;SDS011;64573;50.328;15.014;2023-08-30T12:40:45;1.65;;;0.90;;
75894;SDS011;64573;50.328;15.014;2023-08-30T12:43:15;1.73;;;0.90;;
75894;SDS011;64573;50.328;15.014;2023-08-30T12:45:41;1.60;;;0.80;;
75894;SDS011;64573;50.328;15.014;2023-08-30T12:48:09;1.33;;;0.80;;
75894;SDS011;64573;50.328;15.014;2023-08-30T12:50:36;1.38;;;0.90;;
75894;SDS011;64573;50.328;15.014;2023-08-30T12:53:02;2.00;;;0.82;;
75894;SDS011;64573;50.328;15.014;2023-08-30T12:55:28;2.05;;;0.80;;
75894;SDS011;64573;50.328;15.014;2023-08-30T12:57:54;4.45;;;1.00;;
75894;SDS011;64573;50.328;15.014;2023-08-30T13:00:19;2.13;;;1.10;;
75894;SDS011;64573;50.328;15.014;2023-08-30T13:02:46;1.30;;;0.93;;
75894;SDS011;64573;50.328;15.014;2023-08-30T13:05:11;7.95;;;1.05;;
75894;SDS011;64573;50.328;15.014;2023-08-30T13:07:36;2.13;;;1.13;;
75894;SDS011;64573;50.328;15.014;2023-08-30T13:10:02;2.95;;;1.30;;
75894;SDS011;64573;50.328;15.014;2023-08-30T13:12:28;2.38;;;1.02;;
75894;SDS011;64573;50.328;15.014;2023-08-30T13:14:54;2.05;;;0.90;;
75894;SDS011;64573;50.328;15.014;2023-08-30T13:17:19;2.30;;;0.80;;
75894;SDS011;64573;50.328;15.014;2023-08-30T13:19:44;0.98;;;0.80;;
75894;SDS011;64573;50.328;15.014;2023-08-30T13:22:10;2.33;;;0.93;;
75894;SDS011;64573;50.328;15.014;2023-08-30T13:24:36;1.27;;;0.73;;
75894;SDS011;64573;50.328;15.014;2023-08-30T13:27:02;1.35;;;0.80;;
75894;SDS011;64573;50.328;15.014;2023-08-30T13:29:27;1.75;;;0.77;;
75894;SDS011;64573;50.328;15.014;2023-08-30T13:31:53;2.05;;;0.80;;
75894;SDS011;64573;50.328;15.014;2023-08-30T13:34:18;5.20;;;0.98;;
75894;SDS011;64573;50.328;15.014;2023-08-30T13:36:44;1.70;;;0.90;;
75894;SDS011;64573;50.328;15.014;2023-08-30T13:39:09;3.05;;;1.17;;
75894;SDS011;64573;50.328;15.014;2023-08-30T13:41:35;2.35;;;0.80;;
75894;SDS011;64573;50.328;15.014;2023-08-30T13:44:01;2.38;;;0.95;;
75894;SDS011;64573;50.328;15.014;2023-08-30T13:46:28;2.78;;;1.08;;
75894;SDS011;64573;50.328;15.014;2023-08-30T13:48:57;1.35;;;0.80;;
75894;SDS011;64573;50.328;15.014;2023-08-30T13:51:23;1.05;;;0.85;;
75894;SDS011;64573;50.328;15.014;2023-08-30T13:53:50;4.35;;;1.88;;
75894;SDS011;64573;50.328;15.014;2023-08-30T13:56:16;1.88;;;1.02;;
75894;SDS011;64573;50.328;15.014;2023-08-30T13:58:41;0.95;;;0.80;;
75894;SDS011;64573;50.328;15.014;2023-08-30T14:01:07;1.70;;;1.08;;
75894;SDS011;64573;50.328;15.014;2023-08-30T14:03:33;1.02;;;0.80;;
75894;SDS011;64573;50.328;15.014;2023-08-30T14:05:58;1.65;;;0.85;;
75894;SDS011;64573;50.328;15.014;2023-08-30T14:08:24;1.75;;;1.20;;
75894;SDS011;64573;50.328;15.014;2023-08-30T14:10:49;1.48;;;0.80;;
75894;SDS011;64573;50.328;15.014;2023-08-30T14:13:15;0.98;;;0.80;;
75894;SDS011;64573;50.328;15.014;2023-08-30T14:15:40;2.20;;;1.00;;
75894;SDS011;64573;50.328;15.014;2023-08-30T14:18:07;0.88;;;0.88;;
75894;SDS011;64573;50.328;15.014;2023-08-30T14:20:33;1.20;;;0.80;;
75894;SDS011;64573;50.328;15.014;2023-08-30T14:22:58;1.10;;;0.90;;
75894;SDS011;64573;50.328;15.014;2023-08-30T14:25:23;2.08;;;0.82;;
75894;SDS011;64573;50.328;15.014;2023-08-30T14:27:49;0.80;;;0.80;;
75894;SDS011;64573;50.328;15.014;2023-08-30T14:30:14;3.53;;;0.90;;
75894;SDS011;64573;50.328;15.014;2023-08-30T14:32:40;2.60;;;0.82;;
75894;SDS011;64573;50.328;15.014;2023-08-30T14:35:06;1.55;;;1.00;;
75894;SDS011;64573;50.328;15.014;2023-08-30T14:37:32;2.40;;;0.80;;
75894;SDS011;64573;50.328;15.014;2023-08-30T14:40:00;0.90;;;0.80;;
75894;SDS011;64573;50.328;15.014;2023-08-30T14:42:28;0.80;;;0.75;;
75894;SDS011;64573;50.328;15.014;2023-08-30T14:44:54;2.67;;;1.08;;
75894;SDS011;64573;50.328;15.014;2023-08-30T14:47:19;2.55;;;1.00;;